createdAt,value
2018-04-17T00:01:45.510Z,6.93
2018-04-17T00:04:14.819Z,7.72
2018-04-17T00:06:44.110Z,8.40
2018-04-17T00:09:13.391Z,8.10
2018-04-17T00:11:43.480Z,8.75
2018-04-17T00:14:12.767Z,5.18
2018-04-17T00:16:42.174Z,9.63
2018-04-17T00:19:11.464Z,5.57
2018-04-17T00:21:40.781Z,4.93
2018-04-17T00:24:10.082Z,6.75
2018-04-17T00:26:39.371Z,8.63
2018-04-17T00:29:08.654Z,6.40
2018-04-17T00:31:37.921Z,6.50
2018-04-17T00:34:07.210Z,8.82
2018-04-17T00:36:37.276Z,4.97
2018-04-17T00:39:06.573Z,11.40
2018-04-17T00:41:35.868Z,6.32
2018-04-17T00:44:05.170Z,6.50
2018-04-17T00:46:34.463Z,8.40
2018-04-17T00:49:03.752Z,4.65
2018-04-17T00:51:33.069Z,6.20
2018-04-17T00:54:04.804Z,5.65
2018-04-17T00:56:34.105Z,6.70
2018-04-17T00:59:03.385Z,7.28
2018-04-17T01:01:33.440Z,5.60
2018-04-17T01:04:02.726Z,5.45
2018-04-17T01:06:32.018Z,5.78
2018-04-17T01:09:01.306Z,4.90
2018-04-17T01:11:31.386Z,8.90
2018-04-17T01:14:00.668Z,8.35
2018-04-17T01:16:29.957Z,8.65
2018-04-17T01:18:59.268Z,10.25
2018-04-17T01:21:28.563Z,7.18
2018-04-17T01:23:57.865Z,10.32
2018-04-17T01:26:27.173Z,8.18
2018-04-17T01:28:56.475Z,5.10
2018-04-17T01:31:25.775Z,8.80
2018-04-17T01:33:55.062Z,8.43
2018-04-17T01:36:24.344Z,5.85
2018-04-17T01:38:53.638Z,8.98
2018-04-17T01:41:23.695Z,11.50
2018-04-17T01:43:53.003Z,4.82
2018-04-17T01:46:22.277Z,5.60
2018-04-17T01:48:51.551Z,6.35
2018-04-17T01:51:21.618Z,6.65
2018-04-17T01:53:50.910Z,6.22
2018-04-17T01:56:20.194Z,9.00
2018-04-17T01:58:49.485Z,8.73
2018-04-17T02:01:18.791Z,11.63
2018-04-17T02:03:48.076Z,10.88
2018-04-17T02:06:17.394Z,9.75
2018-04-17T02:08:46.684Z,10.00
2018-04-17T02:11:15.997Z,6.07
2018-04-17T02:13:45.268Z,12.10
2018-04-17T02:16:15.334Z,8.27
2018-04-17T02:18:44.653Z,8.02
2018-04-17T02:21:13.929Z,9.40
2018-04-17T02:23:43.540Z,7.05
2018-04-17T02:26:12.828Z,9.55
2018-04-17T02:28:42.102Z,8.32
2018-04-17T02:31:12.163Z,7.10
2018-04-17T02:33:41.480Z,6.28
2018-04-17T02:36:10.752Z,6.32
2018-04-17T02:38:40.049Z,6.65
2018-04-17T02:41:09.435Z,7.37
2018-04-17T02:43:39.484Z,7.05
2018-04-17T02:46:08.787Z,6.95
2018-04-17T02:48:38.117Z,9.50
2018-04-17T02:51:07.404Z,9.38
2018-04-17T02:53:36.689Z,10.90
2018-04-17T02:56:06.658Z,7.28
2018-04-17T02:58:36.708Z,10.27
2018-04-17T03:01:05.990Z,9.38
2018-04-17T03:03:35.279Z,8.82
2018-04-17T03:06:05.330Z,6.80
2018-04-17T03:08:34.627Z,8.25
2018-04-17T03:11:03.916Z,5.30
2018-04-17T03:13:33.429Z,10.30
2018-04-17T03:16:02.904Z,11.60
2018-04-17T03:18:32.953Z,7.25
2018-04-17T03:21:02.276Z,7.20
2018-04-17T03:23:31.594Z,9.65
2018-04-17T03:26:00.883Z,6.35
2018-04-17T03:28:30.234Z,9.48
2018-04-17T03:31:00.313Z,7.03
2018-04-17T03:33:29.625Z,6.32
2018-04-17T03:35:58.901Z,6.22
2018-04-17T03:38:28.206Z,12.75
2018-04-17T03:40:57.507Z,8.45
2018-04-17T03:43:26.791Z,6.45
2018-04-17T03:45:56.070Z,14.05
2018-04-17T03:48:25.369Z,6.93
2018-04-17T03:50:54.657Z,9.50
2018-04-17T03:53:23.966Z,6.75
2018-04-17T03:55:53.265Z,10.65
2018-04-17T03:58:22.551Z,10.10
2018-04-17T04:00:52.719Z,7.97
2018-04-17T04:03:22.448Z,14.77
2018-04-17T04:05:55.390Z,14.55
2018-04-17T04:08:24.656Z,6.28
2018-04-17T04:10:54.706Z,9.32
2018-04-17T04:13:23.996Z,10.32
2018-04-17T04:15:53.289Z,11.07
2018-04-17T04:18:39.998Z,13.95
2018-04-17T04:24:36.104Z,11.02
2018-04-17T04:27:05.390Z,7.78
2018-04-17T04:29:34.672Z,9.35
2018-04-17T04:32:03.978Z,10.43
2018-04-17T04:34:33.368Z,16.42
2018-04-17T04:37:03.194Z,15.18
2018-04-17T04:39:32.491Z,9.15
2018-04-17T04:42:01.801Z,11.60
2018-04-17T04:44:31.077Z,8.98
2018-04-17T04:47:00.360Z,9.60
2018-04-17T04:49:30.470Z,11.55
2018-04-17T04:52:01.150Z,11.38
2018-04-17T04:54:30.445Z,10.75
2018-04-17T04:56:59.728Z,8.05
2018-04-17T04:59:29.055Z,9.45
2018-04-17T05:01:58.337Z,9.50
2018-04-17T05:04:27.662Z,12.63
2018-04-17T05:06:56.966Z,10.75
2018-04-17T05:09:26.289Z,8.18
2018-04-17T05:11:55.582Z,10.75
2018-04-17T05:14:24.879Z,10.43
2018-04-17T05:16:54.177Z,12.32
2018-04-17T05:19:23.468Z,17.40
2018-04-17T05:21:52.760Z,13.77
2018-04-17T05:24:22.064Z,16.83
2018-04-17T05:26:52.140Z,11.00
2018-04-17T05:29:21.428Z,16.90
2018-04-17T05:31:51.502Z,14.87
2018-04-17T05:34:20.805Z,18.75
2018-04-17T05:36:50.095Z,19.33
2018-04-17T05:39:19.397Z,19.02
2018-04-17T05:41:48.704Z,10.23
2018-04-17T05:44:18.088Z,10.50
2018-04-17T05:46:47.366Z,11.93
2018-04-17T05:49:16.672Z,12.60
2018-04-17T05:51:45.973Z,14.73
2018-04-17T05:54:16.037Z,9.50
2018-04-17T05:56:45.341Z,15.82
2018-04-17T05:59:14.622Z,9.10
2018-04-17T06:01:43.922Z,14.35
2018-04-17T06:04:13.212Z,14.30
2018-04-17T06:06:42.533Z,13.62
2018-04-17T06:09:11.829Z,12.63
2018-04-17T06:11:41.133Z,16.95
2018-04-17T06:14:10.443Z,17.58
2018-04-17T06:16:39.750Z,20.02
2018-04-17T06:19:09.074Z,16.20
2018-04-17T06:21:38.374Z,12.30
2018-04-17T06:24:07.674Z,19.92
2018-04-17T06:26:36.966Z,16.25
2018-04-17T06:29:06.271Z,16.25
2018-04-17T06:31:36.326Z,11.38
2018-04-17T06:34:05.630Z,14.35
2018-04-17T06:36:34.921Z,14.02
2018-04-17T06:39:04.221Z,12.88
2018-04-17T06:41:33.543Z,11.57
2018-04-17T06:44:02.900Z,17.40
2018-04-17T06:46:32.267Z,17.73
2018-04-17T06:49:02.358Z,18.80
2018-04-17T06:51:31.668Z,10.35
2018-04-17T06:54:00.963Z,15.77
2018-04-17T06:56:30.270Z,17.55
2018-04-17T06:58:59.559Z,14.77
2018-04-17T07:01:28.863Z,13.45
2018-04-17T07:03:58.140Z,12.18
2018-04-17T07:06:27.465Z,11.38
2018-04-17T07:08:56.763Z,13.60
2018-04-17T07:11:26.060Z,14.25
2018-04-17T07:13:55.363Z,10.60
2018-04-17T07:16:24.671Z,14.63
2018-04-17T07:18:53.964Z,12.57
2018-04-17T07:21:23.252Z,14.57
2018-04-17T07:23:52.548Z,17.00
2018-04-17T07:26:21.826Z,14.55
2018-04-17T07:28:51.908Z,15.95
2018-04-17T07:31:21.210Z,13.07
2018-04-17T07:33:50.517Z,13.52
2018-04-17T07:36:19.813Z,9.90
2018-04-17T07:38:49.120Z,13.75
2018-04-17T07:41:18.430Z,16.70
2018-04-17T07:43:47.723Z,14.70
2018-04-17T07:46:17.027Z,11.15
2018-04-17T07:48:50.745Z,13.18
2018-04-17T07:51:20.053Z,17.92
2018-04-17T07:53:49.350Z,9.90
2018-04-17T07:56:18.650Z,10.35
2018-04-17T07:58:47.967Z,11.65
2018-04-17T08:01:18.040Z,11.10
2018-04-17T08:03:47.347Z,11.45
2018-04-17T08:06:16.648Z,13.20
2018-04-17T08:08:45.971Z,13.13
2018-04-17T08:11:16.023Z,11.35
2018-04-17T08:13:45.323Z,13.90
2018-04-17T08:16:14.603Z,15.45
2018-04-17T08:18:44.670Z,14.45
2018-04-17T08:21:13.972Z,12.20
2018-04-17T08:23:43.291Z,17.08
2018-04-17T08:26:12.587Z,13.27
2018-04-17T08:28:41.883Z,12.55
2018-04-17T08:31:11.181Z,17.27
2018-04-17T08:33:41.302Z,13.43
2018-04-17T08:36:10.613Z,13.90
2018-04-17T08:38:39.884Z,10.82
2018-04-17T08:41:09.186Z,14.35
2018-04-17T08:43:38.473Z,13.40
2018-04-17T08:46:07.778Z,15.70
2018-04-17T08:48:38.054Z,11.27
2018-04-17T08:51:07.361Z,16.70
2018-04-17T08:53:37.431Z,12.85
2018-04-17T08:56:06.730Z,11.75
2018-04-17T08:58:36.039Z,19.48
2018-04-17T09:01:06.313Z,12.35
2018-04-17T09:03:35.616Z,14.70
2018-04-17T09:06:04.966Z,17.35
2018-04-17T09:08:34.260Z,16.40
2018-04-17T09:11:03.574Z,12.82
2018-04-17T09:13:32.884Z,13.93
2018-04-17T09:16:02.195Z,18.48
2018-04-17T09:18:31.502Z,17.95
2018-04-17T09:21:01.567Z,13.32
2018-04-17T09:23:30.874Z,15.45
2018-04-17T09:26:00.187Z,21.27
2018-04-17T09:28:29.486Z,12.95
2018-04-17T09:30:58.779Z,12.52
2018-04-17T09:33:28.087Z,11.70
2018-04-17T09:35:57.392Z,16.90
2018-04-17T09:38:26.690Z,18.80
2018-04-17T09:40:56.003Z,13.02
2018-04-17T09:43:25.294Z,14.60
2018-04-17T09:45:54.602Z,11.40
2018-04-17T09:48:23.904Z,13.18
2018-04-17T09:50:53.198Z,10.65
2018-04-17T09:53:22.497Z,12.73
2018-04-17T09:55:51.784Z,10.05
2018-04-17T09:58:21.090Z,9.50
2018-04-17T10:00:55.830Z,12.63
2018-04-17T10:03:25.133Z,13.13
2018-04-17T10:05:54.416Z,8.80
2018-04-17T10:08:23.723Z,17.12
2018-04-17T10:10:53.014Z,6.62
2018-04-17T10:13:23.090Z,6.75
2018-04-17T10:15:52.430Z,12.57
2018-04-17T10:18:21.712Z,9.45
2018-04-17T10:20:51.026Z,12.32
2018-04-17T10:23:20.332Z,11.82
2018-04-17T10:25:49.628Z,11.88
2018-04-17T10:28:18.923Z,7.97
2018-04-17T10:30:48.225Z,5.82
2018-04-17T10:33:17.510Z,7.97
2018-04-17T10:35:46.805Z,5.22
2018-04-17T10:38:16.097Z,11.57
2018-04-17T10:40:46.161Z,6.50
2018-04-17T10:43:15.511Z,7.30
2018-04-17T10:45:44.854Z,7.12
2018-04-17T10:48:14.158Z,9.13
2018-04-17T10:50:44.082Z,11.15
2018-04-17T10:53:13.402Z,10.02
2018-04-17T10:55:42.687Z,10.85
2018-04-17T10:58:12.498Z,9.60
2018-04-17T11:00:41.859Z,10.98
2018-04-17T11:03:11.148Z,11.40
2018-04-17T11:05:41.214Z,9.68
2018-04-17T11:08:10.506Z,8.38
2018-04-17T11:10:39.787Z,10.88
2018-04-17T11:13:09.081Z,9.20
2018-04-17T11:15:38.376Z,14.13
2018-04-17T11:18:07.677Z,8.50
2018-04-17T11:20:37.752Z,12.82
2018-04-17T11:23:07.026Z,9.25
2018-04-17T11:25:36.330Z,11.98
2018-04-17T11:28:05.644Z,6.90
2018-04-17T11:30:35.699Z,7.50
2018-04-17T11:33:05.796Z,9.98
2018-04-17T11:35:35.059Z,8.75
2018-04-17T11:38:04.437Z,6.47
2018-04-17T11:40:34.500Z,8.65
2018-04-17T11:43:03.816Z,13.62
2018-04-17T11:45:33.090Z,6.87
2018-04-17T11:48:02.386Z,8.55
2018-04-17T11:50:31.670Z,5.93
2018-04-17T11:53:00.968Z,9.13
2018-04-17T11:55:30.271Z,6.87
2018-04-17T11:57:59.556Z,12.93
2018-04-17T12:00:28.832Z,6.37
2018-04-17T12:02:58.138Z,7.80
2018-04-17T12:05:27.446Z,6.40
2018-04-17T12:07:57.507Z,9.40
2018-04-17T12:10:26.839Z,5.70
2018-04-17T12:12:56.130Z,4.35
2018-04-17T12:15:25.438Z,6.32
2018-04-17T12:17:54.739Z,3.97
2018-04-17T12:20:24.081Z,4.60
2018-04-17T12:22:53.400Z,4.45
2018-04-17T12:25:23.453Z,4.47
2018-04-17T12:27:52.923Z,3.00
2018-04-17T12:30:22.207Z,5.90
2018-04-17T12:32:51.504Z,3.30
2018-04-17T12:35:21.567Z,4.20
2018-04-17T12:37:50.869Z,2.70
2018-04-17T12:40:20.148Z,8.60
2018-04-17T12:42:49.438Z,3.42
2018-04-17T12:45:18.820Z,5.87
2018-04-17T12:47:48.887Z,4.40
2018-04-17T12:50:18.197Z,4.20
2018-04-17T12:52:47.466Z,7.53
2018-04-17T12:55:16.760Z,2.60
2018-04-17T12:57:46.067Z,2.83
2018-04-17T13:00:15.349Z,6.65
2018-04-17T13:02:44.661Z,3.03
2018-04-17T13:05:13.998Z,8.88
2018-04-17T13:07:43.334Z,3.28
2018-04-17T13:10:13.345Z,3.80
2018-04-17T13:12:43.439Z,2.70
2018-04-17T13:15:12.758Z,4.55
2018-04-17T13:17:42.026Z,2.60
2018-04-17T13:20:11.328Z,7.30
2018-04-17T13:22:40.623Z,4.93
2018-04-17T13:25:09.915Z,4.68
2018-04-17T13:27:39.201Z,4.82
2018-04-17T13:30:08.520Z,7.62
2018-04-17T13:32:37.847Z,2.55
2018-04-17T13:35:07.223Z,3.85
2018-04-17T13:37:36.514Z,2.90
2018-04-17T13:40:05.957Z,4.70
2018-04-17T13:42:35.263Z,7.87
2018-04-17T13:45:04.571Z,3.20
2018-04-17T13:47:33.893Z,3.35
2018-04-17T13:50:03.974Z,9.43
2018-04-17T13:52:33.275Z,3.85
2018-04-17T13:55:03.098Z,3.40
2018-04-17T13:57:32.396Z,4.90
2018-04-17T14:00:01.684Z,5.03
2018-04-17T14:02:31.017Z,3.95
2018-04-17T14:05:00.299Z,3.35
2018-04-17T14:07:29.584Z,5.80
2018-04-17T14:09:58.877Z,3.22
2018-04-17T14:12:28.183Z,3.25
2018-04-17T14:14:57.472Z,3.47
2018-04-17T14:17:26.805Z,3.42
2018-04-17T14:19:56.085Z,3.70
2018-04-17T14:22:25.381Z,7.97
2018-04-17T14:24:54.690Z,3.37
2018-04-17T14:27:24.156Z,2.70
2018-04-17T14:29:53.586Z,5.85
2018-04-17T14:32:22.901Z,8.18
2018-04-17T14:34:52.215Z,4.25
2018-04-17T14:37:23.714Z,6.00
2018-04-17T14:39:53.579Z,4.15
2018-04-17T14:42:22.876Z,3.83
2018-04-17T14:44:52.309Z,6.22
2018-04-17T14:47:21.645Z,5.25
2018-04-17T14:49:50.993Z,3.10
2018-04-17T14:52:20.294Z,6.47
2018-04-17T14:54:49.675Z,6.22
2018-04-17T14:57:19.035Z,4.95
2018-04-17T14:59:48.353Z,3.15
2018-04-17T15:02:17.648Z,3.75
2018-04-17T15:04:46.978Z,4.95
2018-04-17T15:07:16.285Z,3.70
2018-04-17T15:09:45.591Z,3.87
2018-04-17T15:12:14.909Z,4.07
2018-04-17T15:14:44.283Z,3.62
2018-04-17T15:17:13.634Z,5.62
2018-04-17T15:19:42.944Z,3.15
2018-04-17T15:22:12.239Z,5.05
2018-04-17T15:24:41.525Z,5.43
2018-04-17T15:27:10.831Z,4.05
2018-04-17T15:29:40.154Z,7.70
2018-04-17T15:32:09.441Z,6.47
2018-04-17T15:34:38.723Z,5.62
2018-04-17T15:37:08.787Z,5.00
2018-04-17T15:39:38.089Z,3.50
2018-04-17T15:42:07.379Z,3.10
2018-04-17T15:44:36.686Z,3.22
2018-04-17T15:47:05.987Z,3.90
2018-04-17T15:49:35.394Z,4.20
2018-04-17T15:52:04.872Z,9.30
2018-04-17T15:54:34.219Z,3.08
2018-04-17T15:57:03.457Z,4.00
2018-04-17T15:59:32.768Z,3.78
2018-04-17T16:02:02.059Z,3.10
2018-04-17T16:04:31.370Z,3.87
2018-04-17T16:07:00.670Z,4.80
2018-04-17T16:09:29.995Z,2.90
2018-04-17T16:11:59.308Z,2.97
2018-04-17T16:14:28.599Z,3.53
2018-04-17T16:16:57.883Z,3.33
2018-04-17T16:19:27.671Z,3.62
2018-04-17T16:21:58.693Z,4.78
2018-04-17T16:24:28.261Z,6.40
2018-04-17T16:26:57.530Z,4.90
2018-04-17T16:29:26.877Z,3.60
2018-04-17T16:31:57.088Z,3.47
2018-04-17T16:34:26.365Z,5.55
2018-04-17T16:36:55.665Z,3.80
2018-04-17T16:39:24.984Z,5.25
2018-04-17T16:41:54.957Z,5.00
2018-04-17T16:44:24.212Z,2.95
2018-04-17T16:46:53.538Z,3.90
2018-04-17T16:49:22.827Z,6.07
2018-04-17T16:51:52.150Z,4.55
2018-04-17T16:54:22.209Z,5.10
2018-04-17T16:56:51.501Z,4.22
2018-04-17T16:59:20.797Z,4.25
2018-04-17T17:01:50.091Z,8.30
2018-04-17T17:04:19.442Z,4.53
2018-04-17T17:06:48.726Z,3.80
2018-04-17T17:09:18.025Z,3.95
2018-04-17T17:11:47.314Z,3.90
2018-04-17T17:14:16.595Z,4.25
2018-04-17T17:16:45.895Z,6.20
2018-04-17T17:19:15.216Z,4.12
2018-04-17T17:21:44.522Z,7.72
2018-04-17T17:24:13.808Z,3.92
2018-04-17T17:26:43.149Z,5.03
2018-04-17T17:29:12.435Z,5.72
2018-04-17T17:31:41.722Z,4.00
2018-04-17T17:34:11.022Z,8.15
2018-04-17T17:36:40.318Z,3.75
2018-04-17T17:39:09.620Z,6.60
2018-04-17T17:41:38.917Z,5.87
2018-04-17T17:44:08.284Z,9.98
2018-04-17T17:46:37.594Z,6.07
2018-04-17T17:49:07.663Z,6.65
2018-04-17T17:51:36.968Z,6.90
2018-04-17T17:54:06.261Z,7.30
2018-04-17T17:56:35.557Z,9.65
2018-04-17T17:59:04.862Z,6.00
2018-04-17T18:01:34.737Z,6.37
2018-04-17T18:04:05.086Z,5.70
2018-04-17T18:06:34.407Z,6.65
2018-04-17T18:09:03.870Z,7.03
2018-04-17T18:11:33.194Z,7.32
2018-04-17T18:14:02.461Z,7.97
2018-04-17T18:16:31.787Z,5.87
2018-04-17T18:19:01.069Z,5.20
2018-04-17T18:21:30.362Z,4.68
2018-04-17T18:24:00.442Z,8.35
2018-04-17T18:26:29.716Z,6.25
2018-04-17T18:28:59.019Z,10.88
2018-04-17T18:31:28.345Z,9.70
2018-04-17T18:33:57.633Z,9.25
2018-04-17T18:36:26.937Z,7.55
2018-04-17T18:38:56.280Z,5.15
2018-04-17T18:41:25.622Z,7.85
2018-04-17T18:43:54.993Z,6.00
2018-04-17T18:46:25.034Z,4.93
2018-04-17T18:48:54.337Z,9.00
2018-04-17T18:51:23.736Z,5.45
2018-04-17T18:53:53.205Z,7.03
2018-04-17T18:56:22.516Z,6.87
2018-04-17T18:58:51.840Z,8.88
2018-04-17T19:01:21.185Z,8.40
2018-04-17T19:03:50.474Z,11.02
2018-04-17T19:06:19.946Z,5.60
2018-04-17T19:08:50.051Z,6.18
2018-04-17T19:11:19.619Z,12.63
2018-04-17T19:13:49.002Z,5.55
2018-04-17T19:16:18.296Z,7.12
2018-04-17T19:18:48.373Z,7.85
2018-04-17T19:21:17.739Z,8.02
2018-04-17T19:23:47.582Z,7.47
2018-04-17T19:26:17.642Z,14.30
2018-04-17T19:28:47.737Z,6.28
2018-04-17T19:31:17.051Z,7.65
2018-04-17T19:33:46.347Z,10.32
2018-04-17T19:36:15.665Z,13.60
2018-04-17T19:38:46.002Z,8.88
2018-04-17T19:41:15.323Z,8.30
2018-04-17T19:43:44.618Z,10.88
2018-04-17T19:46:13.930Z,11.70
2018-04-17T19:48:43.244Z,8.43
2018-04-17T19:51:12.674Z,9.07
2018-04-17T19:53:42.004Z,8.63
2018-04-17T19:56:11.264Z,8.52
2018-04-17T19:58:42.916Z,14.27
2018-04-17T20:01:16.173Z,10.77
2018-04-17T20:03:45.766Z,8.43
2018-04-17T20:06:15.025Z,9.90
2018-04-17T20:08:44.331Z,8.82
2018-04-17T20:11:13.646Z,13.10
2018-04-17T20:13:43.157Z,8.13
2018-04-17T20:16:12.466Z,13.57
2018-04-17T20:18:41.757Z,10.00
2018-04-17T20:21:11.054Z,12.65
2018-04-17T20:23:40.365Z,11.05
2018-04-17T20:26:09.656Z,8.65
2018-04-17T20:28:38.946Z,8.95
2018-04-17T20:31:08.244Z,7.82
2018-04-17T20:33:37.603Z,8.65
2018-04-17T20:36:07.642Z,9.98
2018-04-17T20:38:37.234Z,13.00
2018-04-17T20:41:06.529Z,11.52
2018-04-17T20:43:36.614Z,11.15
2018-04-17T20:46:05.905Z,9.68
2018-04-17T20:48:35.211Z,9.65
2018-04-17T20:51:05.264Z,8.32
2018-04-17T20:53:35.344Z,10.20
2018-04-17T20:56:04.639Z,11.55
2018-04-17T20:58:34.019Z,9.10
2018-04-17T21:01:03.353Z,9.80
2018-04-17T21:03:33.630Z,12.40
2018-04-17T21:06:03.817Z,14.35
2018-04-17T21:08:33.089Z,9.85
2018-04-17T21:11:02.377Z,7.53
2018-04-17T21:13:31.685Z,10.55
2018-04-17T21:16:01.008Z,12.48
2018-04-17T21:18:30.305Z,11.93
2018-04-17T21:20:59.615Z,12.68
2018-04-17T21:23:28.896Z,9.50
2018-04-17T21:25:58.218Z,14.13
2018-04-17T21:28:27.504Z,10.57
2018-04-17T21:30:57.794Z,10.30
2018-04-17T21:33:27.101Z,9.23
2018-04-17T21:35:56.387Z,8.73
2018-04-17T21:38:25.679Z,9.90
2018-04-17T21:40:55.730Z,8.68
2018-04-17T21:43:25.033Z,13.85
2018-04-17T21:45:54.338Z,15.35
2018-04-17T21:48:23.631Z,14.98
2018-04-17T21:50:52.914Z,18.95
2018-04-17T21:53:22.222Z,12.90
2018-04-17T21:55:51.553Z,11.60
2018-04-17T21:58:20.862Z,11.93
2018-04-17T22:00:50.250Z,10.80
2018-04-17T22:03:20.343Z,12.25
2018-04-17T22:05:49.657Z,12.15
2018-04-17T22:08:18.988Z,12.32
2018-04-17T22:10:48.320Z,12.00
2018-04-17T22:13:18.394Z,12.43
2018-04-17T22:15:47.737Z,8.43
2018-04-17T22:18:17.095Z,11.35
2018-04-17T22:20:46.388Z,18.42
2018-04-17T22:23:15.696Z,12.48
2018-04-17T22:25:45.037Z,9.63
2018-04-17T22:28:15.086Z,8.90
2018-04-17T22:30:44.462Z,10.55
2018-04-17T22:33:14.563Z,12.13
2018-04-17T22:35:43.868Z,11.30
2018-04-17T22:38:13.185Z,9.10
2018-04-17T22:40:43.266Z,10.70
2018-04-17T22:43:12.557Z,10.13
2018-04-17T22:45:41.871Z,9.63
2018-04-17T22:48:11.199Z,7.90
2018-04-17T22:50:40.514Z,14.40
2018-04-17T22:53:09.839Z,10.05
2018-04-17T22:55:39.218Z,14.60
2018-04-17T22:58:08.526Z,11.95
2018-04-17T23:00:37.842Z,10.13
2018-04-17T23:03:07.230Z,15.60
2018-04-17T23:05:36.549Z,11.70
2018-04-17T23:08:05.924Z,11.50
2018-04-17T23:10:35.233Z,12.25
2018-04-17T23:13:04.541Z,11.38
2018-04-17T23:15:33.848Z,11.45
2018-04-17T23:18:04.070Z,13.45
2018-04-17T23:20:33.406Z,13.73
2018-04-17T23:23:02.735Z,12.43
2018-04-17T23:25:32.051Z,12.43
2018-04-17T23:28:01.351Z,11.82
2018-04-17T23:30:30.645Z,10.95
2018-04-17T23:33:00.776Z,7.40
2018-04-17T23:35:30.840Z,7.85
2018-04-17T23:38:00.180Z,12.60
2018-04-17T23:40:30.228Z,10.27
2018-04-17T23:42:59.558Z,8.05
2018-04-17T23:45:28.851Z,23.00
2018-04-17T23:47:58.180Z,37.60
2018-04-17T23:50:27.501Z,23.83
2018-04-17T23:52:57.587Z,17.45
2018-04-17T23:55:26.889Z,11.95
2018-04-17T23:57:56.205Z,8.10
